Time;durP1;ratioP1;P1;durP2;ratioP2;P2;SDS_P1;SDS_P2;PMS_P1;PMS_P2;Temp;Humidity;BMP_temperature;BMP_pressure;BME280_temperature;BME280_humidity;BME280_pressure;Samples;Min_cycle;Max_cycle;Signal;HPM_P1;HPM_P2
2023/08/14 00:00:56;;;;;;;9.00;4.15;;;;;;;18.92;83.79;101508.22;5054104;28;20083;-59
2023/08/14 00:03:22;;;;;;;9.10;4.35;;;;;;;18.94;84.07;101507.31;5054323;28;20029;-59
2023/08/14 00:05:47;;;;;;;8.50;3.92;;;;;;;18.95;83.13;101506.38;5054122;28;20104;-59
2023/08/14 00:08:13;;;;;;;7.90;4.10;;;;;;;18.96;83.14;101504.59;5053763;28;20053;-58
2023/08/14 00:10:38;;;;;;;7.78;4.20;;;;;;;18.85;83.05;101504.75;5035866;28;20045;-58
2023/08/14 00:13:04;;;;;;;6.43;3.90;;;;;;;18.79;82.83;101503.94;5053861;28;20500;-58
2023/08/14 00:15:29;;;;;;;6.45;3.88;;;;;;;18.76;82.75;101505.75;5053817;28;20031;-59
2023/08/14 00:17:54;;;;;;;6.03;4.10;;;;;;;18.71;83.01;101502.25;5053785;28;20478;-59
2023/08/14 00:20:20;;;;;;;7.95;3.75;;;;;;;18.71;83.09;101501.34;5053725;28;20388;-58
2023/08/14 00:22:45;;;;;;;6.32;3.50;;;;;;;18.67;83.01;101502.25;5053751;28;20048;-59
2023/08/14 00:25:11;;;;;;;9.65;3.78;;;;;;;18.64;83.20;101489.81;5053569;28;20029;-59
2023/08/14 00:27:37;;;;;;;5.50;3.65;;;;;;;18.58;82.75;101488.97;5053574;28;20033;-59
2023/08/14 00:30:03;;;;;;;8.68;3.80;;;;;;;18.50;83.16;101492.66;5053745;28;20032;-59
2023/08/14 00:32:28;;;;;;;7.63;3.78;;;;;;;18.38;83.71;101481.19;5053313;28;20443;-59
2023/08/14 00:34:54;;;;;;;7.32;4.13;;;;;;;18.35;84.39;101487.47;5053505;28;20033;-59
2023/08/14 00:37:21;;;;;;;6.50;3.45;;;;;;;18.25;84.38;101483.13;5053358;28;20025;-59
2023/08/14 00:39:47;;;;;;;7.43;3.28;;;;;;;18.22;84.41;101488.50;5053279;28;20551;-59
2023/08/14 00:42:12;;;;;;;5.32;3.38;;;;;;;18.17;84.20;101485.00;5035345;28;20025;-59
2023/08/14 00:44:38;;;;;;;5.18;3.65;;;;;;;18.14;84.98;101488.56;5053152;28;20029;-60
2023/08/14 00:47:03;;;;;;;6.90;3.75;;;;;;;18.09;85.09;101487.75;5053206;28;20120;-58
2023/08/14 00:49:28;;;;;;;6.30;3.50;;;;;;;18.15;85.04;101482.31;5053131;28;20029;-59
2023/08/14 00:51:54;;;;;;;7.70;3.80;;;;;;;18.21;85.01;101478.72;5053219;28;20058;-59
2023/08/14 00:54:19;;;;;;;6.53;3.78;;;;;;;18.24;85.04;101487.59;5053098;28;20050;-59
2023/08/14 00:56:45;;;;;;;5.63;3.40;;;;;;;18.16;85.30;101489.47;5052472;28;20025;-59
2023/08/14 00:59:11;;;;;;;6.70;3.20;;;;;;;18.20;84.91;101483.19;5053289;28;20061;-59
2023/08/14 01:01:36;;;;;;;7.30;3.60;;;;;;;18.21;84.79;101478.72;5053039;28;20033;-58
2023/08/14 01:04:02;;;;;;;5.70;3.60;;;;;;;18.26;84.92;101475.06;5052958;28;20040;-59
2023/08/14 01:06:27;;;;;;;5.50;3.70;;;;;;;18.29;85.02;101478.63;5035176;28;20021;-59
2023/08/14 01:08:53;;;;;;;5.63;3.60;;;;;;;18.25;84.76;101472.44;5052641;28;20116;-59
2023/08/14 01:11:23;;;;;;;5.55;3.92;;;;;;;18.22;85.27;101475.13;5052993;28;20040;-58
2023/08/14 01:13:48;;;;;;;7.13;4.20;;;;;;;18.22;86.04;101476.00;5052918;28;20033;-59
2023/08/14 01:16:20;;;;;;;6.55;4.30;;;;;;;18.22;85.33;101467.97;5053051;28;20079;-58
2023/08/14 01:18:47;;;;;;;6.30;4.32;;;;;;;18.22;85.22;101467.97;5052852;28;20035;-58
2023/08/14 01:21:15;;;;;;;8.82;4.85;;;;;;;18.16;85.59;101464.50;5052806;28;20029;-59
2023/08/14 01:23:56;;;;;;;10.80;4.07;;;;;;;18.14;85.76;101468.97;5053006;28;20417;-59
2023/08/14 01:26:22;;;;;;;6.03;3.90;;;;;;;18.13;85.84;101472.56;5052617;28;20028;-59
2023/08/14 01:28:49;;;;;;;9.05;4.00;;;;;;;18.18;85.93;101455.53;5034793;28;20029;-58
2023/08/14 01:31:15;;;;;;;6.63;4.00;;;;;;;18.14;85.84;101461.81;5052673;28;20397;-60
2023/08/14 01:33:40;;;;;;;8.18;4.10;;;;;;;18.15;85.80;101452.88;5052936;28;20104;-59
2023/08/14 01:36:33;;;;;;;8.15;4.95;;;;;;;18.21;85.39;101452.84;5051475;28;20032;-59
2023/08/14 01:39:05;;;;;;;;;;;;;;;18.34;83.82;101455.38;5053127;28;20429;-59
2023/08/14 01:41:49;;;;;;;12.45;6.35;;;;;;;18.32;85.17;101449.16;5052872;28;19943;-60
2023/08/14 01:44:19;;;;;;;8.43;5.13;;;;;;;18.30;85.44;101448.28;5052820;28;20036;-59
2023/08/14 01:46:47;;;;;;;7.47;5.00;;;;;;;18.30;85.53;101432.25;5052594;28;20479;-59
2023/08/14 01:49:16;;;;;;;12.98;5.63;;;;;;;18.30;85.85;101437.59;5052465;28;20056;-60
2023/08/14 01:51:46;;;;;;;13.07;5.30;;;;;;;18.29;85.16;101431.34;5052588;28;20027;-59
2023/08/14 01:54:11;;;;;;;10.35;5.20;;;;;;;18.23;84.96;101431.41;5052811;28;20017;-59
2023/08/14 01:56:37;;;;;;;10.50;5.72;;;;;;;18.19;85.59;101427.88;5052526;28;20529;-59
2023/08/14 01:59:02;;;;;;;11.18;5.45;;;;;;;18.12;85.96;101433.34;5052473;28;20482;-58
2023/08/14 02:01:28;;;;;;;7.63;5.55;;;;;;;18.07;86.05;101424.47;5034858;28;20040;-58
2023/08/14 02:03:53;;;;;;;10.45;5.10;;;;;;;18.00;86.10;101419.19;5052386;28;20391;-59
2023/08/14 02:06:19;;;;;;;10.35;5.30;;;;;;;17.97;86.54;101424.56;5052698;28;20021;-58
2023/08/14 02:08:44;;;;;;;7.57;4.82;;;;;;;18.04;86.02;101429.88;5034563;28;20029;-59
2023/08/14 02:11:10;;;;;;;11.70;5.15;;;;;;;17.98;86.69;101425.44;5056161;28;20501;-59
2023/08/14 02:13:35;;;;;;;13.48;5.57;;;;;;;18.06;86.77;101417.34;5056080;28;20116;-60
2023/08/14 02:16:03;;;;;;;7.82;5.45;;;;;;;18.07;86.02;101416.44;5056085;28;20159;-60
2023/08/14 02:18:28;;;;;;;10.15;4.80;;;;;;;18.05;85.76;101407.56;5055988;28;20131;-59
2023/08/14 02:20:53;;;;;;;9.27;5.10;;;;;;;18.03;85.93;101407.59;5038156;28;20045;-59
2023/08/14 02:23:19;;;;;;;9.20;4.72;;;;;;;17.96;85.99;101408.53;5038029;28;20482;-60
2023/08/14 02:25:45;;;;;;;8.27;4.57;;;;;;;17.86;86.22;101407.75;5055842;28;20066;-59
2023/08/14 02:28:11;;;;;;;6.53;4.43;;;;;;;17.80;86.57;101404.25;5055770;28;20104;-58
2023/08/14 02:30:43;;;;;;;6.20;4.50;;;;;;;17.75;86.90;101410.53;5055781;28;20053;-59
2023/08/14 02:33:09;;;;;;;7.47;4.40;;;;;;;17.68;86.46;101403.41;5056037;28;20029;-60
2023/08/14 02:35:35;;;;;;;7.63;5.07;;;;;;;17.61;87.71;101395.50;5037900;28;20036;-60
2023/08/14 02:38:02;;;;;;;11.65;5.60;;;;;;;17.53;89.22;101392.91;5055528;28;20025;-60
2023/08/14 02:40:27;;;;;;;8.52;5.20;;;;;;;17.49;89.22;101392.03;5037518;28;20025;-61
2023/08/14 02:42:59;;;;;;;9.77;5.20;;;;;;;17.38;88.92;101393.03;5055561;28;20031;-59
2023/08/14 02:45:24;;;;;;;7.90;4.40;;;;;;;17.45;89.02;101400.09;5055559;28;20129;-59
2023/08/14 02:47:49;;;;;;;8.70;4.53;;;;;;;17.49;88.62;101396.50;5055361;28;20580;-60
2023/08/14 02:50:15;;;;;;;12.35;5.15;;;;;;;17.55;89.49;101390.19;5055561;28;20459;-59
2023/08/14 02:52:40;;;;;;;11.60;5.05;;;;;;;17.54;88.20;101397.34;5055547;28;20406;-59
2023/08/14 02:55:06;;;;;;;11.75;5.30;;;;;;;17.56;87.71;101403.56;5054041;28;20544;-59
2023/08/14 02:57:31;;;;;;;7.85;4.50;;;;;;;17.54;87.38;101394.66;5055045;28;20060;-60
2023/08/14 02:59:57;;;;;;;6.95;4.15;;;;;;;17.57;87.29;101399.09;5055383;28;20470;-60
2023/08/14 03:02:22;;;;;;;10.85;4.60;;;;;;;17.64;87.45;101399.00;5054161;28;20496;-59
2023/08/14 03:04:49;;;;;;;8.68;5.10;;;;;;;17.66;87.46;101393.66;5055157;28;20036;-59
2023/08/14 03:07:14;;;;;;;7.75;4.65;;;;;;;17.57;85.79;101397.31;5055107;28;20025;-59
2023/08/14 03:09:40;;;;;;;6.57;4.30;;;;;;;17.49;85.66;101402.72;5054617;28;20418;-60
2023/08/14 03:12:05;;;;;;;9.10;4.40;;;;;;;17.39;85.65;101403.72;5054971;28;20096;-59
2023/08/14 03:14:30;;;;;;;9.40;5.45;;;;;;;17.43;89.77;101408.13;5055291;28;20055;-60
2023/08/14 03:16:56;;;;;;;7.30;5.25;;;;;;;17.45;89.73;101392.97;5054976;28;20552;-59
2023/08/14 03:19:21;;;;;;;11.13;5.57;;;;;;;17.40;91.32;101392.13;5054880;28;20029;-59
2023/08/14 03:21:50;;;;;;;13.07;6.38;;;;;;;17.34;91.60;101400.16;5054611;28;20609;-60
2023/08/14 03:24:16;;;;;;;8.82;5.43;;;;;;;17.38;91.55;101398.34;5054898;28;20123;-59
2023/08/14 03:26:41;;;;;;;10.23;5.90;;;;;;;17.40;90.71;101401.94;5054442;28;20113;-58
2023/08/14 03:29:07;;;;;;;10.00;5.82;;;;;;;17.36;90.77;101400.19;5054544;28;20044;-59
2023/08/14 03:31:33;;;;;;;15.10;6.20;;;;;;;17.36;91.19;101395.72;5054619;28;20028;-60
2023/08/14 03:33:59;;;;;;;10.43;5.97;;;;;;;17.32;91.01;101399.31;5054834;28;20029;-59
2023/08/14 03:36:24;;;;;;;10.88;6.50;;;;;;;17.35;91.93;101398.41;5054595;28;20021;-59
2023/08/14 03:38:50;;;;;;;10.90;6.22;;;;;;;17.32;92.37;101393.09;5053444;28;20032;-59
2023/08/14 03:41:15;;;;;;;11.65;6.80;;;;;;;17.33;93.09;101393.06;5036584;28;20029;-60
2023/08/14 03:43:40;;;;;;;10.07;6.63;;;;;;;17.27;93.00;101399.34;5054300;28;20025;-59
2023/08/14 03:46:06;;;;;;;11.68;6.50;;;;;;;17.26;93.08;101389.56;5054672;28;20100;-60
2023/08/14 03:48:31;;;;;;;10.77;6.40;;;;;;;17.25;92.98;101398.47;5054220;28;20100;-60
2023/08/14 03:50:56;;;;;;;10.50;6.50;;;;;;;17.16;92.86;101403.88;5054348;28;20432;-60
2023/08/14 03:53:22;;;;;;;10.70;6.57;;;;;;;17.18;92.95;101403.88;5054242;28;20099;-59
2023/08/14 03:55:48;;;;;;;11.70;6.50;;;;;;;17.10;93.05;101403.94;5054154;28;20356;-60
2023/08/14 03:58:14;;;;;;;13.45;7.10;;;;;;;17.01;93.27;101399.53;5054004;28;20083;-60
2023/08/14 04:00:39;;;;;;;10.77;6.53;;;;;;;17.01;93.88;101404.88;5054042;28;20025;-60
2023/08/14 04:03:04;;;;;;;10.90;6.80;;;;;;;17.03;93.87;101391.50;5054111;28;20048;-59
2023/08/14 04:05:30;;;;;;;11.95;6.85;;;;;;;17.07;93.74;101389.72;5054053;28;20506;-60
2023/08/14 04:08:01;;;;;;;13.35;6.88;;;;;;;17.14;93.64;101397.69;5054125;28;20368;-60
2023/08/14 04:10:28;;;;;;;13.38;6.30;;;;;;;17.12;92.93;101394.09;5053752;28;20049;-59
2023/08/14 04:12:53;;;;;;;10.75;6.25;;;;;;;17.14;93.02;101392.34;5053770;28;20075;-60
2023/08/14 04:15:19;;;;;;;11.18;6.32;;;;;;;17.11;92.00;101394.13;5053693;28;20021;-60
2023/08/14 04:17:44;;;;;;;8.18;6.20;;;;;;;17.07;91.67;101389.72;5053938;28;20032;-59
2023/08/14 04:20:10;;;;;;;9.35;6.57;;;;;;;17.07;91.59;101387.91;5053490;28;20111;-59
2023/08/14 04:22:36;;;;;;;9.32;6.55;;;;;;;17.05;91.83;101384.41;5035348;28;20080;-59
2023/08/14 04:25:01;;;;;;;11.18;6.40;;;;;;;17.03;91.99;101383.50;5053183;28;20496;-59
2023/08/14 04:27:27;;;;;;;10.27;6.13;;;;;;;16.98;91.83;101375.53;5053017;28;20429;-59
2023/08/14 04:29:53;;;;;;;9.07;5.65;;;;;;;17.01;91.32;101379.97;5053309;28;20355;-60
2023/08/14 04:32:19;;;;;;;9.73;5.70;;;;;;;17.01;90.87;101377.31;5052509;28;20033;-59
2023/08/14 04:34:44;;;;;;;11.38;6.07;;;;;;;17.00;90.94;101367.50;5053014;28;20116;-58
2023/08/14 04:37:09;;;;;;;8.93;6.13;;;;;;;17.00;91.00;101368.41;5052739;28;20069;-60
2023/08/14 04:39:35;;;;;;;7.82;5.43;;;;;;;17.07;91.61;101368.34;5053002;28;20029;-59
2023/08/14 04:42:00;;;;;;;12.48;7.10;;;;;;;17.13;92.61;101373.63;5035048;28;20032;-60
2023/08/14 04:44:26;;;;;;;11.27;6.57;;;;;;;17.17;92.42;101364.69;5053025;28;20028;-60
2023/08/14 04:46:51;;;;;;;13.57;6.35;;;;;;;17.11;92.17;101362.97;5035018;28;20032;-59
2023/08/14 04:49:17;;;;;;;11.32;5.93;;;;;;;17.13;91.59;101363.88;5052651;28;20474;-60
2023/08/14 04:51:42;;;;;;;10.07;5.53;;;;;;;17.15;90.93;101362.03;5053074;28;20025;-59
2023/08/14 04:54:08;;;;;;;8.35;5.80;;;;;;;17.18;90.59;101361.16;5052599;28;20405;-60
2023/08/14 04:56:33;;;;;;;12.60;6.35;;;;;;;17.21;91.91;101367.31;5052440;28;20029;-60
2023/08/14 04:58:59;;;;;;;12.23;6.43;;;;;;;17.21;91.26;101351.31;5052745;28;20035;-59
2023/08/14 05:01:25;;;;;;;10.05;6.30;;;;;;;17.28;91.21;101347.69;5052460;28;20037;-60
2023/08/14 05:03:50;;;;;;;11.05;6.50;;;;;;;17.37;91.26;101343.16;5052699;28;20032;-60
2023/08/14 05:06:16;;;;;;;10.85;6.60;;;;;;;17.40;91.29;101343.16;5034683;28;20033;-60
2023/08/14 05:08:41;;;;;;;10.82;6.50;;;;;;;17.45;91.62;101346.66;5052326;28;20033;-60
2023/08/14 05:11:07;;;;;;;11.35;6.53;;;;;;;17.57;91.38;101346.53;5052246;28;20063;-60
2023/08/14 05:13:32;;;;;;;10.57;7.30;;;;;;;17.65;91.07;101343.78;5052507;28;20050;-59
2023/08/14 05:15:57;;;;;;;14.55;6.90;;;;;;;17.74;90.87;101338.38;5052317;28;20021;-60
2023/08/14 05:18:23;;;;;;;12.77;6.72;;;;;;;17.86;90.97;101331.97;5052360;28;20033;-59
2023/08/14 05:20:49;;;;;;;9.05;6.85;;;;;;;17.93;90.49;101339.94;5051155;28;20025;-60
2023/08/14 05:23:15;;;;;;;12.52;6.72;;;;;;;18.00;90.48;101338.97;5052706;28;20021;-59
2023/08/14 05:25:42;;;;;;;12.30;7.03;;;;;;;18.06;90.13;101340.66;5052072;28;20067;-60
2023/08/14 05:28:07;;;;;;;12.23;6.93;;;;;;;18.13;89.77;101338.81;5051917;28;20053;-60
2023/08/14 05:30:33;;;;;;;10.40;6.40;;;;;;;18.18;89.96;101348.53;5034298;28;20056;-60
2023/08/14 05:32:58;;;;;;;10.75;6.55;;;;;;;18.17;90.17;101349.44;5052217;28;20029;-60
2023/08/14 05:35:24;;;;;;;13.18;6.80;;;;;;;18.21;90.14;101334.25;5052519;28;20471;-60
2023/08/14 05:37:57;;;;;;;11.38;6.40;;;;;;;18.24;90.21;101344.91;5034251;28;20029;-60
2023/08/14 05:40:23;;;;;;;10.98;6.30;;;;;;;18.23;90.40;101360.06;5052258;28;20528;-60
2023/08/14 05:43:03;;;;;;;12.45;6.95;;;;;;;18.23;90.50;101345.81;5052725;28;20025;-60
2023/08/14 05:45:33;;;;;;;11.15;6.47;;;;;;;18.24;91.06;101355.59;5056317;28;20033;-60
2023/08/14 05:48:00;;;;;;;10.27;6.85;;;;;;;18.19;90.85;101347.63;5055935;28;20041;-60
2023/08/14 05:50:26;;;;;;;12.48;6.95;;;;;;;18.26;91.72;101357.34;5056403;28;20036;-60
2023/08/14 05:52:52;;;;;;;9.57;6.70;;;;;;;18.30;91.46;101366.25;5055918;28;20063;-60
2023/08/14 05:55:18;;;;;;;9.93;6.50;;;;;;;18.32;91.26;101363.53;5056001;28;20112;-60
2023/08/14 05:57:43;;;;;;;12.88;6.50;;;;;;;18.30;91.56;101360.88;5055673;28;20029;-60
2023/08/14 06:00:12;;;;;;;16.10;7.18;;;;;;;18.22;92.17;101371.69;5056203;28;20029;-60
2023/08/14 06:02:37;;;;;;;10.38;6.72;;;;;;;18.26;92.12;101375.19;5055901;28;20033;-60
2023/08/14 06:05:04;;;;;;;12.10;7.10;;;;;;;18.24;92.28;101382.34;5055808;28;20171;-58
2023/08/14 06:07:29;;;;;;;12.82;6.95;;;;;;;18.31;92.11;101383.16;5056048;28;20443;-60
2023/08/14 06:09:54;;;;;;;16.13;7.50;;;;;;;18.27;92.29;101377.84;5055506;28;20190;-60
2023/08/14 06:12:20;;;;;;;12.30;7.47;;;;;;;18.23;92.42;101389.50;5055925;28;20052;-60
2023/08/14 06:14:45;;;;;;;13.75;6.78;;;;;;;18.29;92.49;101387.66;5055707;28;20033;-59
2023/08/14 06:17:11;;;;;;;12.65;7.45;;;;;;;18.34;92.34;101396.53;5055812;28;20368;-60
2023/08/14 06:19:36;;;;;;;12.00;7.90;;;;;;;18.30;93.10;101395.66;5055825;28;20064;-60
2023/08/14 06:22:02;;;;;;;14.50;7.90;;;;;;;18.34;92.87;101383.13;5037673;28;20385;-59
2023/08/14 06:24:29;;;;;;;12.15;8.10;;;;;;;18.37;92.71;101380.41;5055461;28;20471;-59
2023/08/14 06:26:57;;;;;;;14.18;8.40;;;;;;;18.41;92.81;101388.38;5055241;28;20398;-60
2023/08/14 06:29:23;;;;;;;15.10;8.38;;;;;;;18.40;93.15;101383.03;5037988;28;20036;-60
2023/08/14 06:31:49;;;;;;;11.25;8.52;;;;;;;18.52;93.66;101375.75;5055462;28;20033;-59
2023/08/14 06:34:14;;;;;;;13.65;8.77;;;;;;;18.71;93.95;101365.72;5037668;28;20423;-60
2023/08/14 06:36:40;;;;;;;12.95;8.98;;;;;;;19.01;93.04;101368.81;5055127;28;20036;-59
2023/08/14 06:39:05;;;;;;;13.32;9.27;;;;;;;19.34;92.85;101370.06;5037503;28;20402;-60
2023/08/14 06:41:31;;;;;;;16.02;10.00;;;;;;;19.58;91.55;101378.59;5055386;28;20551;-60
2023/08/14 06:43:56;;;;;;;15.52;9.18;;;;;;;19.79;88.17;101374.69;5055387;28;20413;-60
2023/08/14 06:46:22;;;;;;;18.15;9.23;;;;;;;20.02;87.94;101361.69;5055250;28;20475;-59
2023/08/14 06:48:47;;;;;;;14.02;9.35;;;;;;;20.08;87.21;101356.19;5055069;28;20025;-60
2023/08/14 06:51:13;;;;;;;12.82;8.98;;;;;;;20.04;86.82;101357.16;5055069;28;20032;-60
2023/08/14 06:53:38;;;;;;;16.95;8.75;;;;;;;19.98;86.79;101357.28;5054911;28;20025;-60
2023/08/14 06:56:04;;;;;;;12.00;8.98;;;;;;;19.96;87.80;101367.19;5054141;28;20118;-60
2023/08/14 06:58:29;;;;;;;15.68;9.27;;;;;;;20.01;87.96;101365.28;5054399;28;20039;-61
2023/08/14 07:00:55;;;;;;;17.42;9.70;;;;;;;20.09;87.90;101355.28;5054992;28;20032;-60
2023/08/14 07:03:20;;;;;;;15.40;9.18;;;;;;;20.41;86.99;101351.91;5054729;28;20533;-60
2023/08/14 07:05:46;;;;;;;15.23;9.00;;;;;;;20.64;84.95;101353.22;5054826;28;20066;-60
2023/08/14 07:08:11;;;;;;;13.65;8.68;;;;;;;20.92;83.11;101361.53;5053271;28;20029;-59
2023/08/14 07:10:37;;;;;;;15.90;8.43;;;;;;;21.16;81.86;101360.94;5054394;28;20080;-60
2023/08/14 07:13:03;;;;;;;16.20;7.88;;;;;;;21.40;80.73;101354.06;5054610;28;20017;-60
2023/08/14 07:15:28;;;;;;;15.43;8.05;;;;;;;21.44;80.04;101357.56;5054433;28;20190;-60
2023/08/14 07:17:54;;;;;;;16.33;7.60;;;;;;;21.36;78.05;101362.25;5054570;28;20495;-59
2023/08/14 07:20:19;;;;;;;13.95;7.50;;;;;;;21.21;78.93;101358.16;5054403;28;20040;-60
2023/08/14 07:22:45;;;;;;;15.43;7.40;;;;;;;21.06;79.79;101359.38;5054352;28;20036;-59
2023/08/14 07:25:12;;;;;;;16.25;7.13;;;;;;;21.02;80.28;101350.50;5036336;28;20021;-61
2023/08/14 07:27:37;;;;;;;13.50;7.32;;;;;;;20.89;80.91;101345.47;5054111;28;20044;-60
2023/08/14 07:30:05;;;;;;;12.68;7.10;;;;;;;20.87;80.59;101345.53;5054215;28;20025;-59
2023/08/14 07:32:30;;;;;;;13.20;6.95;;;;;;;20.92;80.60;101356.16;5054256;28;20120;-60
2023/08/14 07:34:56;;;;;;;14.73;7.05;;;;;;;21.15;81.56;101360.97;5054168;28;20053;-60
2023/08/14 07:37:22;;;;;;;12.48;6.32;;;;;;;21.26;80.07;101367.84;5054089;28;20029;-60
2023/08/14 07:39:47;;;;;;;13.75;7.05;;;;;;;21.02;79.83;101372.00;5054013;28;20111;-59
2023/08/14 07:42:13;;;;;;;13.85;6.95;;;;;;;20.94;80.90;101384.78;5054221;28;20021;-60
2023/08/14 07:44:38;;;;;;;17.30;6.40;;;;;;;21.16;80.32;101379.75;5054101;28;20414;-60
2023/08/14 07:47:04;;;;;;;13.07;6.28;;;;;;;21.33;78.76;101384.75;5054221;28;20467;-60
2023/08/14 07:49:33;;;;;;;13.02;5.88;;;;;;;21.42;77.05;101384.50;5054185;28;20101;-59
2023/08/14 07:51:58;;;;;;;13.98;5.70;;;;;;;21.75;76.34;101374.69;5053938;28;20021;-60
2023/08/14 07:54:23;;;;;;;14.35;5.47;;;;;;;22.16;74.41;101377.16;5052651;28;20104;-59
2023/08/14 07:56:49;;;;;;;9.25;5.18;;;;;;;22.44;71.59;101375.44;5053576;28;20025;-59
2023/08/14 07:59:14;;;;;;;13.95;4.93;;;;;;;22.54;68.45;101370.66;5053728;28;20155;-59
2023/08/14 08:01:41;;;;;;;11.50;4.78;;;;;;;22.78;70.03;101377.06;5053597;28;20025;-60
2023/08/14 08:04:06;;;;;;;12.73;4.80;;;;;;;22.94;68.50;101373.00;5053692;28;20095;-60
2023/08/14 08:06:32;;;;;;;10.35;4.70;;;;;;;23.17;67.86;101374.06;5052911;28;20159;-60
2023/08/14 08:08:57;;;;;;;10.73;4.43;;;;;;;23.45;67.18;101382.09;5053126;28;20359;-60
2023/08/14 08:11:22;;;;;;;10.23;3.92;;;;;;;23.55;66.14;101374.56;5053811;28;20033;-60
2023/08/14 08:13:48;;;;;;;7.35;3.78;;;;;;;23.76;64.88;101378.38;5053341;28;20021;-59
2023/08/14 08:16:13;;;;;;;9.00;3.70;;;;;;;23.84;64.24;101371.75;5053435;28;20029;-60
2023/08/14 08:18:39;;;;;;;8.10;3.90;;;;;;;24.03;64.58;101366.59;5053274;28;20114;-59
2023/08/14 08:21:04;;;;;;;7.30;3.47;;;;;;;24.22;62.06;101364.06;5053250;28;20029;-60
2023/08/14 08:23:30;;;;;;;7.97;3.30;;;;;;;24.31;62.47;101369.13;5053448;28;20029;-60
2023/08/14 08:25:55;;;;;;;12.57;3.55;;;;;;;24.41;61.08;101353.47;5053018;28;20040;-60
2023/08/14 08:28:21;;;;;;;10.15;3.20;;;;;;;24.37;60.78;101360.84;5052773;28;20024;-61
2023/08/14 08:30:46;;;;;;;9.13;3.25;;;;;;;24.44;60.81;101351.53;5053050;28;20112;-59
2023/08/14 08:33:12;;;;;;;8.68;3.25;;;;;;;24.43;61.22;101346.19;5053325;28;20033;-60
2023/08/14 08:35:37;;;;;;;8.88;3.20;;;;;;;24.41;60.35;101351.66;5052965;28;20044;-59
2023/08/14 08:38:03;;;;;;;5.63;3.03;;;;;;;24.63;59.77;101353.53;5052887;28;20420;-60
2023/08/14 08:40:30;;;;;;;11.90;2.90;;;;;;;24.80;58.65;101352.84;5053011;28;20541;-61
2023/08/14 08:42:56;;;;;;;7.05;2.80;;;;;;;24.92;58.49;101347.84;5052857;28;20103;-60
2023/08/14 08:45:26;;;;;;;8.52;3.05;;;;;;;25.09;57.80;101338.16;5034890;28;20116;-60
2023/08/14 08:47:56;;;;;;;6.60;2.65;;;;;;;25.38;56.54;101340.50;5053093;28;20021;-60
2023/08/14 08:50:22;;;;;;;10.15;2.70;;;;;;;25.40;55.81;101341.34;5052756;28;20033;-60
2023/08/14 08:52:47;;;;;;;6.45;2.72;;;;;;;25.45;55.83;101347.41;5052817;28;20104;-60
2023/08/14 08:55:13;;;;;;;9.00;2.55;;;;;;;25.48;55.50;101355.41;5052559;28;20151;-59
2023/08/14 08:57:38;;;;;;;9.90;2.60;;;;;;;25.43;54.96;101348.41;5052564;28;20111;-60
2023/08/14 09:00:05;;;;;;;7.22;2.60;;;;;;;25.38;55.29;101332.38;5052620;28;20033;-60
2023/08/14 09:02:30;;;;;;;6.57;2.40;;;;;;;25.57;54.84;101329.78;5052782;28;20044;-61
2023/08/14 09:04:56;;;;;;;7.10;2.67;;;;;;;25.79;53.31;101332.44;5052568;28;20471;-61
2023/08/14 09:07:21;;;;;;;6.78;2.40;;;;;;;25.87;53.49;101332.97;5034660;28;20094;-60
2023/08/14 09:09:47;;;;;;;6.13;2.38;;;;;;;26.00;53.95;101341.41;5052112;28;20053;-60
2023/08/14 09:12:12;;;;;;;6.75;2.70;;;;;;;25.89;52.78;101330.19;5052331;28;20067;-59
2023/08/14 09:14:43;;;;;;;7.53;2.75;;;;;;;25.91;53.18;101334.59;5052333;28;20037;-59
2023/08/14 09:17:10;;;;;;;7.05;2.50;;;;;;;26.04;51.98;101336.72;5052104;28;20025;-60
2023/08/14 09:19:37;;;;;;;5.78;2.30;;;;;;;25.99;51.07;101331.50;5051948;28;20387;-60
2023/08/14 09:22:03;;;;;;;7.55;2.55;;;;;;;25.97;53.50;101323.47;5052545;28;20036;-60
2023/08/14 09:24:34;;;;;;;6.80;2.53;;;;;;;26.20;52.68;101326.94;5052249;28;20025;-60
2023/08/14 09:27:00;;;;;;;9.40;2.65;;;;;;;26.53;52.19;101316.38;5052389;28;20074;-60
2023/08/14 09:29:29;;;;;;;6.22;2.38;;;;;;;26.71;50.02;101329.00;5052162;28;20033;-59
2023/08/14 09:31:54;;;;;;;7.45;2.70;;;;;;;26.78;48.86;101326.91;5052366;28;20254;-60
2023/08/14 09:34:20;;;;;;;8.02;2.53;;;;;;;26.78;49.22;101332.31;5052276;28;20029;-60
2023/08/14 09:36:47;;;;;;;6.47;2.42;;;;;;;26.91;49.96;101338.88;5052255;28;20029;-60
2023/08/14 09:39:13;;;;;;;8.18;2.60;;;;;;;27.31;49.40;101346.88;5052092;28;20440;-60
2023/08/14 09:41:38;;;;;;;7.80;2.30;;;;;;;27.35;47.96;101341.22;5052188;28;20025;-59
2023/08/14 09:44:04;;;;;;;6.38;2.40;;;;;;;27.50;48.17;101346.81;5052470;28;20037;-60
2023/08/14 09:46:29;;;;;;;4.43;2.33;;;;;;;27.55;46.59;101352.91;5052145;28;20448;-61
2023/08/14 09:48:55;;;;;;;4.95;2.30;;;;;;;27.72;48.33;101352.88;5051965;28;20059;-60
2023/08/14 09:51:21;;;;;;;6.72;2.60;;;;;;;27.49;47.40;101350.47;5052243;28;20029;-60
2023/08/14 09:53:53;;;;;;;7.20;2.50;;;;;;;27.52;48.58;101342.19;5052234;28;20313;-61
2023/08/14 09:56:19;;;;;;;5.35;2.45;;;;;;;27.45;45.78;101337.09;5051927;28;20021;-60
2023/08/14 09:58:46;;;;;;;7.05;2.38;;;;;;;27.48;43.17;101333.31;5051741;28;20390;-59
2023/08/14 10:01:12;;;;;;;8.23;2.38;;;;;;;27.60;42.68;101331.81;5034192;28;20489;-59
2023/08/14 10:03:41;;;;;;;5.15;2.20;;;;;;;27.78;42.99;101335.41;5052223;28;20029;-60
2023/08/14 10:06:09;;;;;;;10.18;2.20;;;;;;;27.86;44.00;101322.28;5051750;28;20368;-60
2023/08/14 10:08:36;;;;;;;5.65;2.40;;;;;;;27.90;44.30;101334.75;5051848;28;20407;-60
2023/08/14 10:11:05;;;;;;;6.05;2.30;;;;;;;27.83;43.53;101301.59;5051593;28;20045;-60
2023/08/14 10:13:35;;;;;;;6.15;2.28;;;;;;;27.91;43.27;101310.22;5051699;28;20036;-60
2023/08/14 10:16:06;;;;;;;5.45;2.30;;;;;;;27.90;42.28;101302.16;5052068;28;20021;-59
2023/08/14 10:18:34;;;;;;;7.18;2.40;;;;;;;27.92;42.56;101289.34;5050632;28;20112;-59
2023/08/14 10:21:01;;;;;;;5.68;2.20;;;;;;;27.94;43.32;101290.16;5051645;28;20036;-60
2023/08/14 10:23:28;;;;;;;4.78;2.10;;;;;;;27.98;42.10;101293.59;5051646;28;20029;-61
2023/08/14 10:25:54;;;;;;;6.68;2.50;;;;;;;28.08;41.82;101279.41;5050366;28;20108;-61
2023/08/14 10:28:20;;;;;;;6.43;2.47;;;;;;;28.35;42.01;101270.66;5051278;28;20071;-60
2023/08/14 10:30:46;;;;;;;7.38;2.53;;;;;;;28.26;40.22;101268.47;5053658;28;20116;-60
2023/08/14 10:33:13;;;;;;;8.50;2.55;;;;;;;28.36;41.18;101267.03;5055333;28;20021;-60
2023/08/14 10:35:55;;;;;;;5.82;2.25;;;;;;;28.31;41.48;101258.19;5037313;28;20047;-60
2023/08/14 10:38:24;;;;;;;7.38;2.60;;;;;;;28.50;39.88;101258.06;5055443;28;20198;-59
2023/08/14 10:40:55;;;;;;;6.75;2.63;;;;;;;28.56;40.38;101261.31;5037078;28;20425;-60
2023/08/14 10:43:26;;;;;;;6.90;2.43;;;;;;;29.02;40.57;101245.03;5055064;28;20021;-59
2023/08/14 10:45:52;;;;;;;6.25;2.30;;;;;;;29.09;41.61;101249.13;5054969;28;20315;-60
2023/08/14 10:48:19;;;;;;;6.03;2.50;;;;;;;29.08;38.94;101254.66;5054808;28;20135;-59
2023/08/14 10:50:48;;;;;;;6.20;2.40;;;;;;;29.10;39.91;101250.00;5055320;28;20033;-60
2023/08/14 10:53:14;;;;;;;6.22;2.30;;;;;;;28.97;40.46;101254.44;5055000;28;20068;-60
2023/08/14 10:55:44;;;;;;;7.18;2.70;;;;;;;28.96;40.95;101259.00;5054790;28;20021;-60
2023/08/14 10:58:27;;;;;;;5.88;2.50;;;;;;;29.28;41.15;101259.78;5054788;28;20035;-59
2023/08/14 11:00:54;;;;;;;8.40;2.38;;;;;;;29.30;39.26;101259.69;5054865;28;20090;-60
2023/08/14 11:03:19;;;;;;;7.15;2.38;;;;;;;29.30;39.47;101255.13;5054872;28;20033;-60
2023/08/14 11:05:45;;;;;;;7.55;2.33;;;;;;;29.36;39.11;101251.16;5054793;28;20466;-60
2023/08/14 11:08:12;;;;;;;8.23;2.28;;;;;;;29.33;39.40;101265.81;5036893;28;20033;-60
2023/08/14 11:10:39;;;;;;;7.70;2.58;;;;;;;29.23;39.11;101251.03;5054432;28;20052;-61
2023/08/14 11:13:09;;;;;;;9.50;2.50;;;;;;;29.30;39.68;101257.84;5054626;28;20055;-59
2023/08/14 11:15:39;;;;;;;5.93;2.30;;;;;;;29.48;40.32;101255.84;5054669;28;20032;-60
2023/08/14 11:18:06;;;;;;;6.85;2.60;;;;;;;29.43;39.52;101269.75;5055200;28;20021;-60